sensor_id;sensor_type;location;lat;lon;timestamp;P1;durP1;ratioP1;P2;durP2;ratioP2
27804;SDS011;15183;51.350;11.102;2023-04-15T00:00:34;2.97;;;2.67;;
27804;SDS011;15183;51.350;11.102;2023-04-15T00:03:01;4.68;;;3.70;;
27804;SDS011;15183;51.350;11.102;2023-04-15T00:05:29;3.65;;;2.90;;
27804;SDS011;15183;51.350;11.102;2023-04-15T00:07:57;3.15;;;2.80;;
27804;SDS011;15183;51.350;11.102;2023-04-15T00:10:24;3.65;;;3.30;;
27804;SDS011;15183;51.350;11.102;2023-04-15T00:12:50;4.78;;;3.65;;
27804;SDS011;15183;51.350;11.102;2023-04-15T00:15:17;4.43;;;3.40;;
27804;SDS011;15183;51.350;11.102;2023-04-15T00:17:44;6.90;;;4.55;;
27804;SDS011;15183;51.350;11.102;2023-04-15T00:20:11;5.63;;;3.95;;
27804;SDS011;15183;51.350;11.102;2023-04-15T00:22:37;4.90;;;3.88;;
27804;SDS011;15183;51.350;11.102;2023-04-15T00:25:04;4.50;;;3.53;;
27804;SDS011;15183;51.350;11.102;2023-04-15T00:27:30;5.78;;;4.22;;
27804;SDS011;15183;51.350;11.102;2023-04-15T00:29:56;3.38;;;2.90;;
27804;SDS011;15183;51.350;11.102;2023-04-15T00:32:23;3.65;;;3.10;;
27804;SDS011;15183;51.350;11.102;2023-04-15T00:34:49;4.03;;;3.55;;
27804;SDS011;15183;51.350;11.102;2023-04-15T00:37:16;3.70;;;3.30;;
27804;SDS011;15183;51.350;11.102;2023-04-15T00:39:42;4.35;;;3.15;;
27804;SDS011;15183;51.350;11.102;2023-04-15T00:42:09;6.70;;;4.15;;
27804;SDS011;15183;51.350;11.102;2023-04-15T00:44:36;6.47;;;3.70;;
27804;SDS011;15183;51.350;11.102;2023-04-15T00:47:03;6.50;;;4.82;;
27804;SDS011;15183;51.350;11.102;2023-04-15T00:49:30;3.65;;;3.20;;
27804;SDS011;15183;51.350;11.102;2023-04-15T00:51:56;4.47;;;3.70;;
27804;SDS011;15183;51.350;11.102;2023-04-15T00:54:23;5.47;;;4.03;;
27804;SDS011;15183;51.350;11.102;2023-04-15T00:56:50;7.10;;;5.20;;
27804;SDS011;15183;51.350;11.102;2023-04-15T00:59:16;5.85;;;4.50;;
27804;SDS011;15183;51.350;11.102;2023-04-15T01:01:44;5.47;;;4.70;;
27804;SDS011;15183;51.350;11.102;2023-04-15T01:04:11;4.15;;;3.75;;
27804;SDS011;15183;51.350;11.102;2023-04-15T01:06:38;6.10;;;4.65;;
27804;SDS011;15183;51.350;11.102;2023-04-15T01:09:04;6.32;;;4.10;;
27804;SDS011;15183;51.350;11.102;2023-04-15T01:11:31;3.92;;;3.47;;
27804;SDS011;15183;51.350;11.102;2023-04-15T01:13:58;3.78;;;3.40;;
27804;SDS011;15183;51.350;11.102;2023-04-15T01:16:25;4.38;;;3.70;;
27804;SDS011;15183;51.350;11.102;2023-04-15T01:18:53;5.00;;;4.22;;
27804;SDS011;15183;51.350;11.102;2023-04-15T01:21:20;6.53;;;4.90;;
27804;SDS011;15183;51.350;11.102;2023-04-15T01:23:47;5.47;;;4.53;;
27804;SDS011;15183;51.350;11.102;2023-04-15T01:26:15;4.07;;;3.65;;
27804;SDS011;15183;51.350;11.102;2023-04-15T01:28:42;4.30;;;3.83;;
27804;SDS011;15183;51.350;11.102;2023-04-15T01:31:09;4.82;;;4.30;;
27804;SDS011;15183;51.350;11.102;2023-04-15T01:33:38;4.45;;;4.00;;
27804;SDS011;15183;51.350;11.102;2023-04-15T01:36:07;7.68;;;4.22;;
27804;SDS011;15183;51.350;11.102;2023-04-15T01:38:35;3.60;;;3.28;;
27804;SDS011;15183;51.350;11.102;2023-04-15T01:41:03;3.83;;;3.47;;
27804;SDS011;15183;51.350;11.102;2023-04-15T01:43:31;4.18;;;3.78;;
27804;SDS011;15183;51.350;11.102;2023-04-15T01:45:57;3.58;;;3.28;;
27804;SDS011;15183;51.350;11.102;2023-04-15T01:48:24;3.63;;;3.30;;
27804;SDS011;15183;51.350;11.102;2023-04-15T01:50:51;4.72;;;4.13;;
27804;SDS011;15183;51.350;11.102;2023-04-15T01:53:20;5.53;;;4.15;;
27804;SDS011;15183;51.350;11.102;2023-04-15T01:55:46;5.68;;;4.30;;
27804;SDS011;15183;51.350;11.102;2023-04-15T01:58:13;5.40;;;4.65;;
27804;SDS011;15183;51.350;11.102;2023-04-15T02:00:39;3.42;;;3.10;;
27804;SDS011;15183;51.350;11.102;2023-04-15T02:03:06;5.50;;;4.50;;
27804;SDS011;15183;51.350;11.102;2023-04-15T02:05:32;3.58;;;3.28;;
27804;SDS011;15183;51.350;11.102;2023-04-15T02:07:59;6.75;;;5.05;;
27804;SDS011;15183;51.350;11.102;2023-04-15T02:10:25;4.43;;;3.88;;
27804;SDS011;15183;51.350;11.102;2023-04-15T02:12:52;4.88;;;3.72;;
27804;SDS011;15183;51.350;11.102;2023-04-15T02:15:18;5.28;;;4.22;;
27804;SDS011;15183;51.350;11.102;2023-04-15T02:17:45;6.68;;;5.05;;
27804;SDS011;15183;51.350;11.102;2023-04-15T02:20:18;8.07;;;5.03;;
27804;SDS011;15183;51.350;11.102;2023-04-15T02:22:46;6.05;;;4.32;;
27804;SDS011;15183;51.350;11.102;2023-04-15T02:25:13;6.07;;;4.85;;
27804;SDS011;15183;51.350;11.102;2023-04-15T02:27:41;5.85;;;4.97;;
27804;SDS011;15183;51.350;11.102;2023-04-15T02:30:09;5.28;;;4.60;;
27804;SDS011;15183;51.350;11.102;2023-04-15T02:32:35;6.32;;;5.20;;
27804;SDS011;15183;51.350;11.102;2023-04-15T02:35:03;5.10;;;4.60;;
27804;SDS011;15183;51.350;11.102;2023-04-15T02:37:34;6.15;;;5.28;;
27804;SDS011;15183;51.350;11.102;2023-04-15T02:40:07;6.72;;;5.22;;
27804;SDS011;15183;51.350;11.102;2023-04-15T02:42:37;6.18;;;5.10;;
27804;SDS011;15183;51.350;11.102;2023-04-15T02:45:05;6.60;;;4.88;;
27804;SDS011;15183;51.350;11.102;2023-04-15T02:47:33;5.88;;;5.13;;
27804;SDS011;15183;51.350;11.102;2023-04-15T02:50:03;4.70;;;4.30;;
27804;SDS011;15183;51.350;11.102;2023-04-15T02:52:32;6.57;;;4.55;;
27804;SDS011;15183;51.350;11.102;2023-04-15T02:54:59;5.20;;;4.70;;
27804;SDS011;15183;51.350;11.102;2023-04-15T02:57:27;7.57;;;5.47;;
27804;SDS011;15183;51.350;11.102;2023-04-15T02:59:56;5.93;;;4.82;;
27804;SDS011;15183;51.350;11.102;2023-04-15T03:02:23;5.40;;;4.80;;
27804;SDS011;15183;51.350;11.102;2023-04-15T03:04:49;6.05;;;5.03;;
27804;SDS011;15183;51.350;11.102;2023-04-15T03:07:16;5.80;;;4.82;;
27804;SDS011;15183;51.350;11.102;2023-04-15T03:09:43;6.30;;;5.03;;
27804;SDS011;15183;51.350;11.102;2023-04-15T03:12:10;5.53;;;4.28;;
27804;SDS011;15183;51.350;11.102;2023-04-15T03:14:37;4.90;;;4.32;;
27804;SDS011;15183;51.350;11.102;2023-04-15T03:17:03;7.50;;;4.60;;
27804;SDS011;15183;51.350;11.102;2023-04-15T03:19:29;6.63;;;4.60;;
27804;SDS011;15183;51.350;11.102;2023-04-15T03:21:56;4.78;;;4.28;;
27804;SDS011;15183;51.350;11.102;2023-04-15T03:24:22;5.72;;;4.38;;
27804;SDS011;15183;51.350;11.102;2023-04-15T03:26:49;6.63;;;4.93;;
27804;SDS011;15183;51.350;11.102;2023-04-15T03:29:16;5.00;;;4.45;;
27804;SDS011;15183;51.350;11.102;2023-04-15T03:31:42;5.85;;;5.15;;
27804;SDS011;15183;51.350;11.102;2023-04-15T03:34:08;10.52;;;4.93;;
27804;SDS011;15183;51.350;11.102;2023-04-15T03:36:35;5.38;;;4.70;;
27804;SDS011;15183;51.350;11.102;2023-04-15T03:39:01;7.50;;;4.78;;
27804;SDS011;15183;51.350;11.102;2023-04-15T03:41:28;6.57;;;5.05;;
27804;SDS011;15183;51.350;11.102;2023-04-15T03:43:55;8.60;;;5.43;;
27804;SDS011;15183;51.350;11.102;2023-04-15T03:46:22;7.35;;;5.78;;
27804;SDS011;15183;51.350;11.102;2023-04-15T03:48:48;6.05;;;5.35;;
27804;SDS011;15183;51.350;11.102;2023-04-15T03:51:15;7.75;;;5.70;;
27804;SDS011;15183;51.350;11.102;2023-04-15T03:53:41;7.68;;;5.80;;
27804;SDS011;15183;51.350;11.102;2023-04-15T03:56:07;6.30;;;5.47;;
27804;SDS011;15183;51.350;11.102;2023-04-15T03:58:34;6.32;;;5.38;;
27804;SDS011;15183;51.350;11.102;2023-04-15T04:01:01;8.48;;;5.43;;
27804;SDS011;15183;51.350;11.102;2023-04-15T04:03:27;7.57;;;5.85;;
27804;SDS011;15183;51.350;11.102;2023-04-15T04:05:54;7.13;;;5.72;;
27804;SDS011;15183;51.350;11.102;2023-04-15T04:08:20;6.85;;;5.30;;
27804;SDS011;15183;51.350;11.102;2023-04-15T04:10:47;8.73;;;5.97;;
27804;SDS011;15183;51.350;11.102;2023-04-15T04:13:13;7.07;;;6.05;;
27804;SDS011;15183;51.350;11.102;2023-04-15T04:15:40;8.25;;;5.80;;
27804;SDS011;15183;51.350;11.102;2023-04-15T04:18:06;7.38;;;5.85;;
27804;SDS011;15183;51.350;11.102;2023-04-15T04:20:33;7.10;;;5.43;;
27804;SDS011;15183;51.350;11.102;2023-04-15T04:22:59;8.05;;;6.32;;
27804;SDS011;15183;51.350;11.102;2023-04-15T04:25:26;8.60;;;6.15;;
27804;SDS011;15183;51.350;11.102;2023-04-15T04:27:52;11.48;;;7.32;;
27804;SDS011;15183;51.350;11.102;2023-04-15T04:30:19;10.43;;;6.65;;
27804;SDS011;15183;51.350;11.102;2023-04-15T04:32:45;10.50;;;6.72;;
27804;SDS011;15183;51.350;11.102;2023-04-15T04:35:12;8.70;;;6.78;;
27804;SDS011;15183;51.350;11.102;2023-04-15T04:37:38;9.18;;;7.30;;
27804;SDS011;15183;51.350;11.102;2023-04-15T04:40:05;10.65;;;8.02;;
27804;SDS011;15183;51.350;11.102;2023-04-15T04:42:34;11.43;;;7.22;;
27804;SDS011;15183;51.350;11.102;2023-04-15T04:45:00;11.10;;;8.73;;
27804;SDS011;15183;51.350;11.102;2023-04-15T04:47:26;13.10;;;8.35;;
27804;SDS011;15183;51.350;11.102;2023-04-15T04:49:53;13.05;;;8.43;;
27804;SDS011;15183;51.350;11.102;2023-04-15T04:52:19;12.70;;;9.05;;
27804;SDS011;15183;51.350;11.102;2023-04-15T04:54:46;10.75;;;8.52;;
27804;SDS011;15183;51.350;11.102;2023-04-15T04:57:12;10.80;;;7.93;;
27804;SDS011;15183;51.350;11.102;2023-04-15T04:59:39;11.23;;;8.32;;
27804;SDS011;15183;51.350;11.102;2023-04-15T05:02:05;11.30;;;8.32;;
27804;SDS011;15183;51.350;11.102;2023-04-15T05:04:32;10.43;;;8.60;;
27804;SDS011;15183;51.350;11.102;2023-04-15T05:06:59;11.30;;;8.30;;
27804;SDS011;15183;51.350;11.102;2023-04-15T05:09:25;12.18;;;8.65;;
27804;SDS011;15183;51.350;11.102;2023-04-15T05:11:51;10.13;;;7.38;;
27804;SDS011;15183;51.350;11.102;2023-04-15T05:14:18;12.48;;;8.55;;
27804;SDS011;15183;51.350;11.102;2023-04-15T05:16:44;10.82;;;8.70;;
27804;SDS011;15183;51.350;11.102;2023-04-15T05:19:11;10.23;;;8.27;;
27804;SDS011;15183;51.350;11.102;2023-04-15T05:21:37;12.02;;;9.43;;
27804;SDS011;15183;51.350;11.102;2023-04-15T05:24:03;16.85;;;11.25;;
27804;SDS011;15183;51.350;11.102;2023-04-15T05:26:49;18.10;;;12.10;;
27804;SDS011;15183;51.350;11.102;2023-04-15T05:29:16;15.73;;;11.23;;
27804;SDS011;15183;51.350;11.102;2023-04-15T05:31:43;15.95;;;10.85;;
27804;SDS011;15183;51.350;11.102;2023-04-15T05:34:09;27.85;;;18.50;;
27804;SDS011;15183;51.350;11.102;2023-04-15T05:36:36;40.22;;;29.40;;
27804;SDS011;15183;51.350;11.102;2023-04-15T05:39:03;40.42;;;27.02;;
27804;SDS011;15183;51.350;11.102;2023-04-15T05:41:29;26.02;;;18.65;;
27804;SDS011;15183;51.350;11.102;2023-04-15T05:43:56;43.58;;;26.55;;
27804;SDS011;15183;51.350;11.102;2023-04-15T05:46:22;53.78;;;32.78;;
27804;SDS011;15183;51.350;11.102;2023-04-15T05:48:49;28.70;;;19.75;;
27804;SDS011;15183;51.350;11.102;2023-04-15T05:51:15;18.17;;;12.30;;
27804;SDS011;15183;51.350;11.102;2023-04-15T05:53:41;19.45;;;13.85;;
27804;SDS011;15183;51.350;11.102;2023-04-15T05:56:08;15.07;;;12.70;;
27804;SDS011;15183;51.350;11.102;2023-04-15T05:58:34;12.73;;;10.13;;
27804;SDS011;15183;51.350;11.102;2023-04-15T06:01:01;11.77;;;9.48;;
27804;SDS011;15183;51.350;11.102;2023-04-15T06:03:28;11.27;;;8.27;;
27804;SDS011;15183;51.350;11.102;2023-04-15T06:05:55;10.90;;;7.93;;
27804;SDS011;15183;51.350;11.102;2023-04-15T06:08:21;9.27;;;8.00;;
27804;SDS011;15183;51.350;11.102;2023-04-15T06:10:47;12.52;;;8.65;;
27804;SDS011;15183;51.350;11.102;2023-04-15T06:13:14;9.75;;;8.13;;
27804;SDS011;15183;51.350;11.102;2023-04-15T06:15:41;10.40;;;7.53;;
27804;SDS011;15183;51.350;11.102;2023-04-15T06:18:08;9.90;;;7.43;;
27804;SDS011;15183;51.350;11.102;2023-04-15T06:20:34;10.05;;;7.25;;
27804;SDS011;15183;51.350;11.102;2023-04-15T06:23:01;9.07;;;6.88;;
27804;SDS011;15183;51.350;11.102;2023-04-15T06:25:27;9.63;;;7.47;;
27804;SDS011;15183;51.350;11.102;2023-04-15T06:27:54;11.23;;;7.97;;
27804;SDS011;15183;51.350;11.102;2023-04-15T06:30:20;10.13;;;7.25;;
27804;SDS011;15183;51.350;11.102;2023-04-15T06:32:47;11.65;;;7.45;;
27804;SDS011;15183;51.350;11.102;2023-04-15T06:35:13;8.68;;;7.13;;
27804;SDS011;15183;51.350;11.102;2023-04-15T06:37:40;11.05;;;8.30;;
27804;SDS011;15183;51.350;11.102;2023-04-15T06:40:07;13.20;;;8.27;;
27804;SDS011;15183;51.350;11.102;2023-04-15T06:42:34;11.15;;;7.68;;
27804;SDS011;15183;51.350;11.102;2023-04-15T06:45:03;9.15;;;7.32;;
27804;SDS011;15183;51.350;11.102;2023-04-15T06:47:30;8.75;;;6.97;;
27804;SDS011;15183;51.350;11.102;2023-04-15T06:49:56;9.68;;;7.00;;
27804;SDS011;15183;51.350;11.102;2023-04-15T06:52:23;10.63;;;7.07;;
27804;SDS011;15183;51.350;11.102;2023-04-15T06:54:49;9.02;;;6.57;;
27804;SDS011;15183;51.350;11.102;2023-04-15T06:57:16;9.55;;;6.90;;
27804;SDS011;15183;51.350;11.102;2023-04-15T06:59:42;7.90;;;6.38;;
27804;SDS011;15183;51.350;11.102;2023-04-15T07:02:08;10.25;;;7.22;;
27804;SDS011;15183;51.350;11.102;2023-04-15T07:04:37;8.68;;;6.30;;
27804;SDS011;15183;51.350;11.102;2023-04-15T07:07:04;8.68;;;6.82;;
27804;SDS011;15183;51.350;11.102;2023-04-15T07:09:31;7.85;;;6.20;;
27804;SDS011;15183;51.350;11.102;2023-04-15T07:11:58;7.32;;;5.82;;
27804;SDS011;15183;51.350;11.102;2023-04-15T07:14:25;8.85;;;6.60;;
27804;SDS011;15183;51.350;11.102;2023-04-15T07:16:52;11.35;;;7.93;;
27804;SDS011;15183;51.350;11.102;2023-04-15T07:19:18;9.20;;;6.38;;
27804;SDS011;15183;51.350;11.102;2023-04-15T07:21:45;11.60;;;7.95;;
27804;SDS011;15183;51.350;11.102;2023-04-15T07:24:12;9.48;;;6.93;;
27804;SDS011;15183;51.350;11.102;2023-04-15T07:26:42;9.48;;;7.00;;
27804;SDS011;15183;51.350;11.102;2023-04-15T07:29:09;9.80;;;6.68;;
27804;SDS011;15183;51.350;11.102;2023-04-15T07:31:35;9.98;;;7.15;;
27804;SDS011;15183;51.350;11.102;2023-04-15T07:34:02;5.95;;;5.32;;
27804;SDS011;15183;51.350;11.102;2023-04-15T07:36:29;8.80;;;6.40;;
27804;SDS011;15183;51.350;11.102;2023-04-15T07:38:56;10.05;;;6.75;;
27804;SDS011;15183;51.350;11.102;2023-04-15T07:41:25;9.93;;;7.00;;
27804;SDS011;15183;51.350;11.102;2023-04-15T07:43:52;9.55;;;7.43;;
27804;SDS011;15183;51.350;11.102;2023-04-15T07:46:18;8.73;;;6.80;;
27804;SDS011;15183;51.350;11.102;2023-04-15T07:48:45;7.65;;;6.05;;
27804;SDS011;15183;51.350;11.102;2023-04-15T07:51:11;11.30;;;8.20;;
27804;SDS011;15183;51.350;11.102;2023-04-15T07:53:38;8.35;;;6.00;;
27804;SDS011;15183;51.350;11.102;2023-04-15T07:56:04;8.13;;;6.15;;
27804;SDS011;15183;51.350;11.102;2023-04-15T07:58:31;9.82;;;7.00;;
27804;SDS011;15183;51.350;11.102;2023-04-15T08:00:57;10.68;;;6.80;;
27804;SDS011;15183;51.350;11.102;2023-04-15T08:03:24;9.15;;;6.80;;
27804;SDS011;15183;51.350;11.102;2023-04-15T08:05:50;6.75;;;5.82;;
27804;SDS011;15183;51.350;11.102;2023-04-15T08:08:17;9.98;;;6.43;;
27804;SDS011;15183;51.350;11.102;2023-04-15T08:10:43;14.65;;;8.88;;
27804;SDS011;15183;51.350;11.102;2023-04-15T08:13:09;12.20;;;8.50;;
27804;SDS011;15183;51.350;11.102;2023-04-15T08:15:36;7.95;;;6.00;;
27804;SDS011;15183;51.350;11.102;2023-04-15T08:18:02;9.90;;;6.82;;
27804;SDS011;15183;51.350;11.102;2023-04-15T08:20:29;7.15;;;5.82;;
27804;SDS011;15183;51.350;11.102;2023-04-15T08:22:55;6.05;;;4.57;;
27804;SDS011;15183;51.350;11.102;2023-04-15T08:25:22;5.72;;;4.35;;
27804;SDS011;15183;51.350;11.102;2023-04-15T08:27:49;7.95;;;6.22;;
27804;SDS011;15183;51.350;11.102;2023-04-15T08:30:15;7.28;;;5.47;;
27804;SDS011;15183;51.350;11.102;2023-04-15T08:32:44;10.82;;;7.03;;
27804;SDS011;15183;51.350;11.102;2023-04-15T08:35:11;8.00;;;6.25;;
27804;SDS011;15183;51.350;11.102;2023-04-15T08:37:38;7.57;;;6.35;;
27804;SDS011;15183;51.350;11.102;2023-04-15T08:40:05;8.13;;;6.40;;
27804;SDS011;15183;51.350;11.102;2023-04-15T08:42:36;10.95;;;7.22;;
27804;SDS011;15183;51.350;11.102;2023-04-15T08:45:11;11.35;;;7.63;;
27804;SDS011;15183;51.350;11.102;2023-04-15T08:47:38;12.35;;;9.13;;
27804;SDS011;15183;51.350;11.102;2023-04-15T08:50:07;12.52;;;8.68;;
27804;SDS011;15183;51.350;11.102;2023-04-15T08:52:35;14.93;;;9.68;;
27804;SDS011;15183;51.350;11.102;2023-04-15T08:55:02;15.65;;;9.75;;
27804;SDS011;15183;51.350;11.102;2023-04-15T09:00:58;11.65;;;8.45;;
27804;SDS011;15183;51.350;11.102;2023-04-15T09:03:26;9.57;;;7.22;;
27804;SDS011;15183;51.350;11.102;2023-04-15T09:05:53;6.75;;;5.15;;
27804;SDS011;15183;51.350;11.102;2023-04-15T09:08:20;6.13;;;4.57;;
27804;SDS011;15183;51.350;11.102;2023-04-15T09:10:46;7.13;;;5.38;;
27804;SDS011;15183;51.350;11.102;2023-04-15T09:13:13;8.30;;;6.63;;
27804;SDS011;15183;51.350;11.102;2023-04-15T09:15:39;9.93;;;7.78;;
27804;SDS011;15183;51.350;11.102;2023-04-15T09:18:06;13.07;;;9.13;;
27804;SDS011;15183;51.350;11.102;2023-04-15T09:20:39;10.32;;;6.65;;
27804;SDS011;15183;51.350;11.102;2023-04-15T09:23:11;13.60;;;9.48;;
27804;SDS011;15183;51.350;11.102;2023-04-15T09:25:38;8.30;;;6.50;;
27804;SDS011;15183;51.350;11.102;2023-04-15T09:28:09;25.27;;;16.35;;
27804;SDS011;15183;51.350;11.102;2023-04-15T09:30:36;18.58;;;12.63;;
27804;SDS011;15183;51.350;11.102;2023-04-15T09:33:03;14.90;;;10.63;;
27804;SDS011;15183;51.350;11.102;2023-04-15T09:35:33;13.13;;;9.10;;
27804;SDS011;15183;51.350;11.102;2023-04-15T09:38:07;15.18;;;10.32;;
27804;SDS011;15183;51.350;11.102;2023-04-15T09:40:35;13.40;;;9.48;;
27804;SDS011;15183;51.350;11.102;2023-04-15T09:43:08;11.18;;;7.78;;
27804;SDS011;15183;51.350;11.102;2023-04-15T09:45:37;11.88;;;8.85;;
27804;SDS011;15183;51.350;11.102;2023-04-15T09:48:24;13.07;;;9.45;;
27804;SDS011;15183;51.350;11.102;2023-04-15T09:50:59;12.40;;;9.23;;
27804;SDS011;15183;51.350;11.102;2023-04-15T09:53:26;20.25;;;13.32;;
27804;SDS011;15183;51.350;11.102;2023-04-15T09:55:54;14.40;;;10.07;;
27804;SDS011;15183;51.350;11.102;2023-04-15T09:58:26;15.75;;;10.05;;
27804;SDS011;15183;51.350;11.102;2023-04-15T10:00:58;15.68;;;10.55;;
27804;SDS011;15183;51.350;11.102;2023-04-15T10:03:28;13.05;;;9.65;;
27804;SDS011;15183;51.350;11.102;2023-04-15T10:05:59;13.63;;;9.43;;
27804;SDS011;15183;51.350;11.102;2023-04-15T10:08:27;12.40;;;9.27;;
27804;SDS011;15183;51.350;11.102;2023-04-15T10:11:02;14.82;;;10.02;;
27804;SDS011;15183;51.350;11.102;2023-04-15T10:13:30;13.95;;;8.48;;
27804;SDS011;15183;51.350;11.102;2023-04-15T10:16:06;15.18;;;10.13;;
27804;SDS011;15183;51.350;11.102;2023-04-15T10:18:43;17.55;;;12.18;;
27804;SDS011;15183;51.350;11.102;2023-04-15T10:21:19;23.20;;;15.52;;
27804;SDS011;15183;51.350;11.102;2023-04-15T10:23:47;19.42;;;12.55;;
27804;SDS011;15183;51.350;11.102;2023-04-15T10:26:15;27.55;;;17.52;;
27804;SDS011;15183;51.350;11.102;2023-04-15T10:28:45;24.45;;;15.75;;
27804;SDS011;15183;51.350;11.102;2023-04-15T10:31:13;17.00;;;11.07;;
27804;SDS011;15183;51.350;11.102;2023-04-15T10:33:40;16.25;;;10.90;;
27804;SDS011;15183;51.350;11.102;2023-04-15T10:36:09;23.88;;;15.43;;
27804;SDS011;15183;51.350;11.102;2023-04-15T10:38:40;25.55;;;16.70;;
27804;SDS011;15183;51.350;11.102;2023-04-15T10:41:18;20.48;;;14.93;;
27804;SDS011;15183;51.350;11.102;2023-04-15T10:43:54;36.38;;;24.55;;
27804;SDS011;15183;51.350;11.102;2023-04-15T10:46:43;31.63;;;21.42;;
27804;SDS011;15183;51.350;11.102;2023-04-15T10:49:14;26.98;;;16.65;;
27804;SDS011;15183;51.350;11.102;2023-04-15T10:51:43;32.10;;;19.23;;
27804;SDS011;15183;51.350;11.102;2023-04-15T10:59:31;26.30;;;16.75;;
27804;SDS011;15183;51.350;11.102;2023-04-15T11:02:04;28.15;;;17.98;;
27804;SDS011;15183;51.350;11.102;2023-04-15T11:12:56;32.35;;;20.25;;
27804;SDS011;15183;51.350;11.102;2023-04-15T11:15:46;27.60;;;17.15;;
27804;SDS011;15183;51.350;11.102;2023-04-15T11:18:15;36.92;;;23.02;;
27804;SDS011;15183;51.350;11.102;2023-04-15T11:20:49;19.63;;;13.50;;
27804;SDS011;15183;51.350;11.102;2023-04-15T11:23:26;23.60;;;15.52;;
27804;SDS011;15183;51.350;11.102;2023-04-15T11:26:03;38.72;;;23.08;;
27804;SDS011;15183;51.350;11.102;2023-04-15T11:28:35;24.67;;;16.55;;
27804;SDS011;15183;51.350;11.102;2023-04-15T11:31:06;30.63;;;19.15;;
27804;SDS011;15183;51.350;11.102;2023-04-15T11:33:36;25.90;;;17.95;;
27804;SDS011;15183;51.350;11.102;2023-04-15T11:36:11;24.50;;;15.47;;
27804;SDS011;15183;51.350;11.102;2023-04-15T11:38:41;27.08;;;18.05;;
27804;SDS011;15183;51.350;11.102;2023-04-15T11:41:09;30.98;;;17.60;;
27804;SDS011;15183;51.350;11.102;2023-04-15T11:43:35;31.85;;;17.85;;
27804;SDS011;15183;51.350;11.102;2023-04-15T11:46:02;17.35;;;12.20;;
27804;SDS011;15183;51.350;11.102;2023-04-15T11:48:30;25.88;;;17.58;;
27804;SDS011;15183;51.350;11.102;2023-04-15T11:51:02;23.15;;;14.95;;
27804;SDS011;15183;51.350;11.102;2023-04-15T11:53:40;22.45;;;14.55;;
27804;SDS011;15183;51.350;11.102;2023-04-15T11:56:18;24.17;;;16.83;;
27804;SDS011;15183;51.350;11.102;2023-04-15T11:58:51;19.42;;;13.18;;
27804;SDS011;15183;51.350;11.102;2023-04-15T12:01:31;25.15;;;16.63;;
27804;SDS011;15183;51.350;11.102;2023-04-15T12:04:10;30.30;;;19.23;;
27804;SDS011;15183;51.350;11.102;2023-04-15T12:06:47;24.60;;;16.52;;
27804;SDS011;15183;51.350;11.102;2023-04-15T12:09:14;60.22;;;30.50;;
27804;SDS011;15183;51.350;11.102;2023-04-15T12:11:44;30.67;;;19.67;;
27804;SDS011;15183;51.350;11.102;2023-04-15T12:16:56;22.73;;;14.95;;
27804;SDS011;15183;51.350;11.102;2023-04-15T12:19:26;28.83;;;17.85;;
27804;SDS011;15183;51.350;11.102;2023-04-15T12:22:00;26.00;;;16.30;;
27804;SDS011;15183;51.350;11.102;2023-04-15T12:28:15;27.90;;;18.58;;
27804;SDS011;15183;51.350;11.102;2023-04-15T12:34:30;21.52;;;14.27;;
27804;SDS011;15183;51.350;11.102;2023-04-15T12:37:01;21.75;;;14.25;;
27804;SDS011;15183;51.350;11.102;2023-04-15T12:39:30;21.45;;;13.82;;
27804;SDS011;15183;51.350;11.102;2023-04-15T12:42:01;21.42;;;14.80;;
27804;SDS011;15183;51.350;11.102;2023-04-15T12:44:30;20.23;;;13.48;;
27804;SDS011;15183;51.350;11.102;2023-04-15T12:46:58;20.23;;;12.70;;
27804;SDS011;15183;51.350;11.102;2023-04-15T12:49:24;21.65;;;13.52;;
27804;SDS011;15183;51.350;11.102;2023-04-15T12:51:52;24.30;;;15.45;;
27804;SDS011;15183;51.350;11.102;2023-04-15T12:54:22;18.55;;;12.13;;
27804;SDS011;15183;51.350;11.102;2023-04-15T12:56:48;17.85;;;11.65;;
27804;SDS011;15183;51.350;11.102;2023-04-15T12:59:15;15.35;;;10.52;;
27804;SDS011;15183;51.350;11.102;2023-04-15T13:01:43;17.85;;;11.52;;
27804;SDS011;15183;51.350;11.102;2023-04-15T13:04:11;15.20;;;10.85;;
27804;SDS011;15183;51.350;11.102;2023-04-15T13:06:38;15.77;;;10.52;;
27804;SDS011;15183;51.350;11.102;2023-04-15T13:09:05;17.65;;;12.00;;
27804;SDS011;15183;51.350;11.102;2023-04-15T13:11:32;17.92;;;11.20;;
27804;SDS011;15183;51.350;11.102;2023-04-15T13:13:59;15.80;;;11.18;;
27804;SDS011;15183;51.350;11.102;2023-04-15T13:16:27;17.25;;;11.55;;
27804;SDS011;15183;51.350;11.102;2023-04-15T13:18:53;18.40;;;11.63;;
27804;SDS011;15183;51.350;11.102;2023-04-15T13:21:20;15.35;;;10.63;;
27804;SDS011;15183;51.350;11.102;2023-04-15T13:23:47;15.80;;;11.25;;
27804;SDS011;15183;51.350;11.102;2023-04-15T13:26:16;21.88;;;13.55;;
27804;SDS011;15183;51.350;11.102;2023-04-15T13:28:43;16.20;;;11.57;;
27804;SDS011;15183;51.350;11.102;2023-04-15T13:31:10;17.85;;;12.00;;
27804;SDS011;15183;51.350;11.102;2023-04-15T13:33:36;26.67;;;16.27;;
27804;SDS011;15183;51.350;11.102;2023-04-15T13:36:03;23.25;;;13.02;;
27804;SDS011;15183;51.350;11.102;2023-04-15T13:38:30;19.10;;;12.95;;
27804;SDS011;15183;51.350;11.102;2023-04-15T13:40:57;18.95;;;11.73;;
27804;SDS011;15183;51.350;11.102;2023-04-15T13:43:24;16.80;;;11.38;;
27804;SDS011;15183;51.350;11.102;2023-04-15T13:45:51;18.92;;;13.18;;
27804;SDS011;15183;51.350;11.102;2023-04-15T13:48:17;17.27;;;12.13;;
27804;SDS011;15183;51.350;11.102;2023-04-15T13:50:43;19.10;;;12.82;;
27804;SDS011;15183;51.350;11.102;2023-04-15T13:53:10;17.27;;;11.70;;
27804;SDS011;15183;51.350;11.102;2023-04-15T13:55:37;20.73;;;13.75;;
27804;SDS011;15183;51.350;11.102;2023-04-15T13:58:07;23.67;;;14.00;;
27804;SDS011;15183;51.350;11.102;2023-04-15T14:00:34;24.35;;;15.68;;
27804;SDS011;15183;51.350;11.102;2023-04-15T14:03:01;19.30;;;13.10;;
27804;SDS011;15183;51.350;11.102;2023-04-15T14:05:27;18.98;;;12.02;;
27804;SDS011;15183;51.350;11.102;2023-04-15T14:07:54;15.90;;;10.63;;
27804;SDS011;15183;51.350;11.102;2023-04-15T14:10:20;19.67;;;12.15;;
27804;SDS011;15183;51.350;11.102;2023-04-15T14:12:47;19.48;;;12.10;;
27804;SDS011;15183;51.350;11.102;2023-04-15T14:15:13;17.00;;;11.75;;
27804;SDS011;15183;51.350;11.102;2023-04-15T14:17:40;24.02;;;15.25;;
27804;SDS011;15183;51.350;11.102;2023-04-15T14:20:07;19.92;;;12.90;;
27804;SDS011;15183;51.350;11.102;2023-04-15T14:22:34;27.98;;;15.80;;
27804;SDS011;15183;51.350;11.102;2023-04-15T14:25:00;20.08;;;13.07;;
27804;SDS011;15183;51.350;11.102;2023-04-15T14:27:27;21.88;;;13.43;;
27804;SDS011;15183;51.350;11.102;2023-04-15T14:29:54;16.25;;;10.88;;
27804;SDS011;15183;51.350;11.102;2023-04-15T14:32:20;16.73;;;11.05;;
27804;SDS011;15183;51.350;11.102;2023-04-15T14:34:46;22.85;;;14.73;;
27804;SDS011;15183;51.350;11.102;2023-04-15T14:37:13;15.43;;;11.95;;
27804;SDS011;15183;51.350;11.102;2023-04-15T14:39:39;17.33;;;12.27;;
27804;SDS011;15183;51.350;11.102;2023-04-15T14:42:06;17.50;;;12.40;;
27804;SDS011;15183;51.350;11.102;2023-04-15T14:44:32;16.60;;;10.80;;
27804;SDS011;15183;51.350;11.102;2023-04-15T14:46:59;14.95;;;10.82;;
27804;SDS011;15183;51.350;11.102;2023-04-15T14:49:25;18.02;;;12.45;;
27804;SDS011;15183;51.350;11.102;2023-04-15T14:51:52;14.07;;;10.00;;
27804;SDS011;15183;51.350;11.102;2023-04-15T14:54:18;17.05;;;11.38;;